Time;durP1;ratioP1;P1;durP2;ratioP2;P2;SDS_P1;SDS_P2;PMS_P1;PMS_P2;Temp;Humidity;BMP_temperature;BMP_pressure;BME280_temperature;BME280_humidity;BME280_pressure;Samples;Min_cycle;Max_cycle;Signal;HPM_P1;HPM_P2
2022/06/18 00:00:31;;;;;;;2.15;1.95;;;;;;;20.55;40.56;101373.44;7395836;19;20041;-67
2022/06/18 00:03:00;;;;;;;4.63;1.80;;;;;;;20.48;40.59;101365.78;7396590;19;20031;-69
2022/06/18 00:05:29;;;;;;;2.22;1.98;;;;;;;20.43;40.92;101367.84;7399012;19;20018;-67
2022/06/18 00:07:59;;;;;;;2.95;2.00;;;;;;;20.37;40.99;101369.97;7398505;19;20018;-67
2022/06/18 00:10:31;;;;;;;2.47;1.80;;;;;;;20.32;41.43;101367.53;7394814;19;20031;-68
2022/06/18 00:15:56;;;;;;;3.45;2.17;;;;;;;20.22;41.59;101372.53;7397277;19;20335;-69
2022/06/18 00:18:24;;;;;;;3.83;1.70;;;;;;;20.18;41.22;101373.59;7396832;19;20046;-68
2022/06/18 00:20:54;;;;;;;2.42;1.63;;;;;;;20.13;41.26;101368.53;7395396;19;20082;-69
2022/06/18 00:23:22;;;;;;;3.33;1.63;;;;;;;20.10;41.37;101365.16;7394170;19;20355;-68
2022/06/18 00:25:55;;;;;;;2.50;1.80;;;;;;;20.05;41.67;101361.88;7395504;19;20019;-69
2022/06/18 00:28:26;;;;;;;2.63;1.75;;;;;;;19.99;41.54;101358.59;7396545;19;20392;-68
2022/06/18 00:30:56;;;;;;;3.38;1.77;;;;;;;19.97;41.43;101367.59;7394704;19;20035;-68
2022/06/18 00:33:25;;;;;;;1.65;1.55;;;;;;;19.91;41.65;101363.44;7396328;19;20078;-68
2022/06/18 00:35:57;;;;;;;3.78;1.77;;;;;;;19.86;41.72;101362.81;7394129;19;20010;-68
2022/06/18 00:38:29;;;;;;;2.13;1.67;;;;;;;19.80;42.06;101358.66;7394049;19;20510;-68
2022/06/18 00:41:02;;;;;;;2.28;1.80;;;;;;;19.77;41.75;101360.59;7394093;19;20031;-68
2022/06/18 00:43:34;;;;;;;2.15;1.95;;;;;;;19.73;42.09;101359.00;7394727;19;20014;-68
2022/06/18 00:46:08;;;;;;;4.55;1.98;;;;;;;19.67;41.81;101355.72;7395709;19;20035;-68
2022/06/18 00:48:43;;;;;;;5.32;1.80;;;;;;;19.64;42.09;101360.38;7396289;19;20039;-68
2022/06/18 00:51:18;;;;;;;2.28;1.40;;;;;;;19.58;42.21;101350.88;7394186;19;20018;-69
2022/06/18 00:53:51;;;;;;;1.70;1.50;;;;;;;19.56;41.87;101352.72;7394355;19;20028;-69
2022/06/18 00:56:28;;;;;;;1.88;1.65;;;;;;;19.52;42.29;101345.84;7393971;19;20031;-68
2022/06/18 00:59:01;;;;;;;2.80;1.15;;;;;;;19.48;42.10;101341.63;7395947;19;20022;-69
2022/06/18 01:01:34;;;;;;;1.70;1.35;;;;;;;19.44;42.33;101342.72;7393501;19;20082;-68
2022/06/18 01:04:02;;;;;;;1.10;1.00;;;;;;;19.41;42.42;101334.88;7393464;19;20010;-69
2022/06/18 01:06:33;;;;;;;1.58;1.30;;;;;;;19.35;42.82;101334.25;7395401;19;20078;-68
2022/06/18 01:09:09;;;;;;;4.20;2.05;;;;;;;19.32;43.02;101333.53;7395580;19;20026;-68
2022/06/18 01:11:43;;;;;;;2.45;1.70;;;;;;;19.28;42.87;101331.97;7393488;19;20019;-69
2022/06/18 01:14:15;;;;;;;1.42;1.30;;;;;;;19.25;43.24;101324.16;7394633;19;20022;-68
2022/06/18 01:16:44;;;;;;;2.45;1.65;;;;;;;19.21;43.29;101318.13;7391862;19;20428;-68
2022/06/18 01:19:27;;;;;;;2.08;1.35;;;;;;;19.17;43.49;101324.50;7395028;19;20015;-68
2022/06/18 01:22:06;;;;;;;2.92;1.60;;;;;;;19.12;43.49;101321.19;7394064;19;20018;-69
2022/06/18 01:24:40;;;;;;;3.55;1.30;;;;;;;19.09;43.57;101321.38;7393728;19;20002;-69
2022/06/18 01:27:10;;;;;;;5.88;1.90;;;;;;;19.03;43.54;101318.06;7393682;19;20026;-69
2022/06/18 01:29:38;;;;;;;3.45;1.83;;;;;;;19.01;43.85;101319.09;7394353;19;20019;-69
2022/06/18 01:32:11;;;;;;;3.65;1.40;;;;;;;18.98;43.71;101313.88;7392592;19;20109;-69
2022/06/18 01:34:41;;;;;;;3.15;1.45;;;;;;;18.95;44.11;101309.59;7395159;19;20035;-69
2022/06/18 01:37:10;;;;;;;6.63;1.60;;;;;;;18.93;43.74;101316.78;7394586;19;20014;-69
2022/06/18 01:39:46;;;;;;;2.95;1.75;;;;;;;18.89;44.25;101309.84;7394143;19;20435;-70
2022/06/18 01:42:19;;;;;;;2.05;1.55;;;;;;;18.87;44.42;101312.59;7393295;19;20023;-69
2022/06/18 01:44:52;;;;;;;3.58;1.58;;;;;;;18.84;44.10;101306.53;7394076;19;20019;-69
2022/06/18 01:47:27;;;;;;;3.27;1.60;;;;;;;18.80;44.73;101308.47;7394565;19;20031;-69
2022/06/18 01:50:01;;;;;;;1.67;1.30;;;;;;;18.78;44.64;101301.53;7394011;19;20073;-69
2022/06/18 01:52:34;;;;;;;2.85;1.63;;;;;;;18.72;44.77;101290.25;7395149;19;20024;-69
2022/06/18 01:55:11;;;;;;;3.95;1.90;;;;;;;18.68;44.61;101291.34;7394484;19;20030;-69
2022/06/18 01:57:52;;;;;;;2.85;1.58;;;;;;;18.64;45.08;101283.56;7394579;19;20025;-69
2022/06/18 02:00:24;;;;;;;1.48;1.38;;;;;;;18.59;44.89;101286.47;7391462;19;20556;-69
2022/06/18 02:02:54;;;;;;;2.33;1.60;;;;;;;18.55;45.41;101280.41;7394330;19;20014;-69
2022/06/18 02:05:24;;;;;;;4.10;1.85;;;;;;;18.52;45.21;101279.69;7393452;19;20509;-69
2022/06/18 02:07:53;;;;;;;1.73;1.60;;;;;;;18.49;45.54;101269.22;7393826;19;20019;-69
2022/06/18 02:10:30;;;;;;;4.18;1.63;;;;;;;18.43;46.00;101264.19;7392253;19;20165;-69
2022/06/18 02:13:00;;;;;;;4.50;1.65;;;;;;;18.40;45.82;101263.41;7391309;19;20031;-69
2022/06/18 02:15:32;;;;;;;1.92;1.48;;;;;;;18.37;46.19;101266.22;7393733;19;20036;-69
2022/06/18 02:18:05;;;;;;;1.92;1.50;;;;;;;18.35;46.22;101265.41;7393816;19;20015;-69
2022/06/18 02:20:39;;;;;;;2.00;1.30;;;;;;;18.32;46.35;101262.03;7392181;19;20019;-69
2022/06/18 02:23:07;;;;;;;3.25;1.30;;;;;;;18.29;46.58;101262.19;7394256;19;20027;-69
2022/06/18 02:25:39;;;;;;;1.83;1.30;;;;;;;18.25;46.61;101264.09;7391224;19;20007;-69
2022/06/18 02:28:15;;;;;;;4.38;1.52;;;;;;;18.20;47.01;101255.50;7395548;19;20081;-69
2022/06/18 02:30:44;;;;;;;3.10;1.40;;;;;;;18.16;46.97;101248.56;7397484;19;20489;-69
2022/06/18 02:33:26;;;;;;;3.65;2.83;;;;;;;18.16;47.22;101252.13;7397558;19;20022;-69
2022/06/18 02:35:55;;;;;;;2.35;1.50;;;;;;;18.13;47.18;101246.06;7400013;19;20019;-69
2022/06/18 02:38:25;;;;;;;2.08;1.30;;;;;;;18.12;47.24;101247.00;7397702;19;20019;-69
2022/06/18 02:40:56;;;;;;;2.03;1.40;;;;;;;18.09;47.21;101245.34;7397009;19;20522;-69
2022/06/18 02:43:24;;;;;;;1.55;1.30;;;;;;;18.07;47.25;101252.50;7400522;19;20039;-69
2022/06/18 02:45:55;;;;;;;1.83;1.20;;;;;;;18.05;47.24;101255.25;7399628;19;20015;-69
2022/06/18 02:48:28;;;;;;;1.45;1.10;;;;;;;18.05;47.29;101249.09;7399755;19;20023;-69
2022/06/18 02:50:59;;;;;;;2.78;1.50;;;;;;;18.00;47.56;101241.31;7397980;19;20103;-69
2022/06/18 02:53:29;;;;;;;4.60;1.73;;;;;;;18.01;47.91;101252.81;7400037;19;20070;-69
2022/06/18 02:56:03;;;;;;;1.92;1.38;;;;;;;17.98;47.71;101245.81;7397594;19;20022;-69
2022/06/18 02:58:35;;;;;;;2.45;1.27;;;;;;;17.96;47.95;101239.72;7399291;19;20485;-69
2022/06/18 03:01:06;;;;;;;3.83;1.70;;;;;;;17.96;48.26;101238.84;7397517;19;20019;-69
2022/06/18 03:03:38;;;;;;;2.45;1.27;;;;;;;17.93;48.09;101226.56;7399554;19;20031;-69
2022/06/18 03:06:07;;;;;;;1.50;1.38;;;;;;;17.92;48.12;101227.50;7399788;19;20019;-69
2022/06/18 03:08:37;;;;;;;4.10;1.58;;;;;;;17.90;48.19;101218.75;7398878;19;20018;-69
2022/06/18 03:13:51;;;;;;;1.60;1.42;;;;;;;17.86;48.57;101212.69;7399352;19;20041;-69
2022/06/18 03:16:22;;;;;;;4.70;1.60;;;;;;;17.84;48.61;101222.53;7398932;19;20074;-69
2022/06/18 03:18:53;;;;;;;1.85;1.48;;;;;;;17.84;48.46;101224.31;7399407;19;20360;-69
2022/06/18 03:21:26;;;;;;;1.90;1.40;;;;;;;17.82;48.41;101213.78;7396797;19;20098;-69
2022/06/18 03:23:55;;;;;;;2.53;1.77;;;;;;;17.82;48.66;101213.78;7396533;19;20026;-69
2022/06/18 03:26:26;;;;;;;1.60;1.40;;;;;;;17.82;48.48;101211.13;7396869;19;20028;-69
2022/06/18 03:28:55;;;;;;;1.92;1.20;;;;;;;17.83;48.40;101209.31;7398638;19;20018;-69
2022/06/18 03:31:24;;;;;;;1.92;1.50;;;;;;;17.83;48.70;101201.34;7396204;19;20026;-69
2022/06/18 03:33:52;;;;;;;3.10;1.30;;;;;;;17.85;48.80;101199.50;7398036;19;20038;-69
2022/06/18 03:36:22;;;;;;;3.42;1.38;;;;;;;17.89;48.51;101195.78;7398255;19;20014;-68
2022/06/18 03:38:51;;;;;;;2.33;1.48;;;;;;;17.90;48.45;101186.88;7395290;19;20018;-67
2022/06/18 03:41:22;;;;;;;4.38;2.20;;;;;;;17.92;48.44;101193.00;7395632;19;20540;-68
2022/06/18 03:43:55;;;;;;;1.65;1.45;;;;;;;17.94;48.38;101192.97;7395728;19;20078;-68
2022/06/18 03:46:24;;;;;;;2.90;1.37;;;;;;;17.97;48.38;101195.47;7398518;19;20019;-68
2022/06/18 03:48:57;;;;;;;2.67;1.70;;;;;;;17.98;48.31;101187.41;7396072;19;20039;-68
2022/06/18 03:51:26;;;;;;;3.53;1.20;;;;;;;18.01;48.26;101184.63;7396239;19;20070;-68
2022/06/18 03:53:55;;;;;;;2.70;1.52;;;;;;;18.04;48.40;101184.47;7397428;19;20520;-68
2022/06/18 03:56:27;;;;;;;3.28;1.80;;;;;;;18.06;48.26;101177.31;7397740;19;20032;-69
2022/06/18 03:58:59;;;;;;;1.55;1.17;;;;;;;18.10;48.64;101178.03;7396269;19;20035;-68
2022/06/18 04:01:30;;;;;;;4.53;1.50;;;;;;;18.11;48.31;101160.31;7395276;19;20481;-68
2022/06/18 04:04:05;;;;;;;3.88;1.60;;;;;;;18.15;48.04;101164.56;7395429;19;20435;-68
2022/06/18 04:06:33;;;;;;;3.22;1.30;;;;;;;18.16;48.46;101160.94;7397051;19;20438;-68
2022/06/18 04:09:02;;;;;;;1.30;1.17;;;;;;;18.24;48.05;101158.81;7397238;19;20014;-68
2022/06/18 04:11:30;;;;;;;4.82;2.20;;;;;;;18.28;47.87;101159.53;7395125;19;20021;-68
2022/06/18 04:14:02;;;;;;;2.25;1.10;;;;;;;18.32;48.07;101161.09;7397411;19;20089;-68
2022/06/18 04:16:31;;;;;;;7.40;1.73;;;;;;;18.35;47.88;101151.19;7397629;19;20034;-68
2022/06/18 04:18:59;;;;;;;1.63;1.38;;;;;;;18.39;48.06;101152.75;7396826;19;20022;-67
2022/06/18 04:21:28;;;;;;;2.45;1.38;;;;;;;18.46;47.99;101155.13;7395203;19;20018;-69
2022/06/18 04:23:57;;;;;;;1.85;1.08;;;;;;;18.49;47.71;101153.19;7394487;19;20037;-68
2022/06/18 04:26:25;;;;;;;5.53;1.60;;;;;;;18.55;47.67;101142.25;7395213;19;20035;-69
2022/06/18 04:28:53;;;;;;;1.60;1.40;;;;;;;18.60;47.59;101144.66;7394606;19;20019;-68
2022/06/18 04:31:25;;;;;;;3.22;1.50;;;;;;;18.65;47.91;101145.34;7394598;19;20022;-68
2022/06/18 04:33:53;;;;;;;2.25;1.10;;;;;;;18.69;47.41;101138.03;7394463;19;20011;-68
2022/06/18 04:36:33;;;;;;;1.27;1.10;;;;;;;18.75;47.83;101142.22;7394501;19;20022;-68
2022/06/18 04:39:01;;;;;;;2.22;1.23;;;;;;;18.79;47.40;101139.31;7395120;19;20035;-69
2022/06/18 04:41:30;;;;;;;1.30;1.10;;;;;;;18.84;47.29;101139.06;7394622;19;20036;-68
2022/06/18 04:43:59;;;;;;;2.95;1.10;;;;;;;18.88;47.53;101128.22;7394565;19;20022;-68
2022/06/18 04:46:30;;;;;;;3.78;1.85;;;;;;;18.94;47.53;101137.69;7394415;19;20022;-68
2022/06/18 04:48:59;;;;;;;2.00;1.20;;;;;;;19.00;46.93;101141.88;7394600;19;20086;-69
2022/06/18 04:51:27;;;;;;;2.50;1.08;;;;;;;19.03;47.07;101134.59;7392376;19;20039;-68
2022/06/18 04:53:56;;;;;;;2.10;1.10;;;;;;;19.10;47.03;101135.13;7395907;19;20365;-68
2022/06/18 04:56:25;;;;;;;2.30;1.20;;;;;;;19.14;46.93;101131.38;7395129;19;20609;-68
2022/06/18 04:58:53;;;;;;;1.75;1.38;;;;;;;19.20;47.06;101133.72;7395927;19;20029;-68
2022/06/18 05:01:29;;;;;;;2.92;1.33;;;;;;;19.26;46.73;101129.00;7393664;19;20042;-68
2022/06/18 05:04:01;;;;;;;3.42;1.20;;;;;;;19.29;46.62;101124.41;7394542;19;20019;-70
2022/06/18 05:06:29;;;;;;;2.00;1.13;;;;;;;19.34;46.50;101127.66;7395403;19;20018;-67
2022/06/18 05:08:58;;;;;;;2.47;1.30;;;;;;;19.39;46.34;101121.28;7395183;19;20081;-67
2022/06/18 05:11:48;;;;;;;2.60;1.23;;;;;;;19.44;46.56;101121.88;7395545;19;20401;-67
2022/06/18 05:14:17;;;;;;;6.72;1.58;;;;;;;19.47;46.30;101124.38;7393754;19;20035;-67
2022/06/18 05:16:46;;;;;;;1.48;1.33;;;;;;;19.50;46.30;101119.75;7395296;19;20014;-67
2022/06/18 05:19:26;;;;;;;1.50;1.08;;;;;;;19.53;46.34;101114.25;7396295;19;20035;-69
2022/06/18 05:21:54;;;;;;;4.00;1.20;;;;;;;19.58;46.41;101114.00;7392927;19;20457;-67
2022/06/18 05:24:29;;;;;;;1.50;1.10;;;;;;;19.61;46.34;101116.50;7392579;19;20015;-69
2022/06/18 05:27:06;;;;;;;2.22;1.40;;;;;;;19.65;46.44;101119.84;7393788;19;20015;-69
2022/06/18 05:29:35;;;;;;;2.80;1.30;;;;;;;19.67;46.33;101117.97;7393519;19;20025;-68
2022/06/18 05:32:03;;;;;;;5.35;1.30;;;;;;;19.69;46.22;101116.94;7393341;19;20039;-67
2022/06/18 05:34:34;;;;;;;2.22;1.38;;;;;;;19.73;46.53;101119.44;7394939;19;20031;-68
2022/06/18 05:37:02;;;;;;;2.15;1.40;;;;;;;19.76;46.08;101113.97;7394441;19;20018;-68
2022/06/18 05:39:31;;;;;;;2.97;1.80;;;;;;;19.77;46.50;101110.34;7393834;19;20023;-68
2022/06/18 05:41:59;;;;;;;3.03;1.40;;;;;;;19.78;46.63;101112.09;7393464;19;20081;-68
2022/06/18 05:44:28;;;;;;;2.92;0.88;;;;;;;19.84;46.15;101109.09;7394034;19;20022;-68
2022/06/18 05:46:56;;;;;;;3.67;1.63;;;;;;;19.89;46.43;101108.84;7393047;19;20022;-68
2022/06/18 05:49:25;;;;;;;2.25;1.45;;;;;;;19.94;46.60;101106.78;7392829;19;20035;-69
2022/06/18 05:51:56;;;;;;;2.33;1.15;;;;;;;19.99;46.63;101104.72;7392843;19;20018;-68
2022/06/18 05:54:25;;;;;;;3.05;1.45;;;;;;;20.06;46.51;101107.94;7393670;19;20024;-68
2022/06/18 05:56:53;;;;;;;1.75;1.30;;;;;;;20.12;46.17;101110.22;7395776;19;20081;-68
2022/06/18 05:59:21;;;;;;;1.60;1.10;;;;;;;20.19;46.57;101114.25;7392992;19;20035;-69
2022/06/18 06:01:50;;;;;;;4.85;1.45;;;;;;;20.26;46.29;101112.13;7396384;19;20019;-68
2022/06/18 06:04:19;;;;;;;3.15;1.13;;;;;;;20.33;46.00;101114.34;7402053;19;20497;-68
2022/06/18 06:06:48;;;;;;;2.45;1.25;;;;;;;20.44;46.06;101115.53;7402624;19;20018;-68
2022/06/18 06:11:28;;;;;;;3.05;1.40;;;;;;;20.52;46.10;101110.63;7402796;19;20085;-68
2022/06/18 06:12:09;;;;;;;3.50;1.50;;;;;;;20.61;45.95;101099.44;7401126;19;20010;-68
2022/06/18 06:14:38;;;;;;;3.85;1.40;;;;;;;20.71;45.80;101099.75;7398114;19;20007;-69
2022/06/18 06:17:07;;;;;;;3.08;1.20;;;;;;;20.81;45.15;101113.41;7398525;19;20046;-68
2022/06/18 06:19:36;;;;;;;2.05;1.25;;;;;;;20.91;45.17;101101.25;7397946;19;20030;-68
2022/06/18 06:22:05;;;;;;;1.42;1.08;;;;;;;21.03;44.44;101096.13;7399044;19;20018;-68
2022/06/18 06:24:36;;;;;;;2.03;0.93;;;;;;;21.15;44.68;101098.94;7400441;19;20082;-68
2022/06/18 06:27:05;;;;;;;4.07;1.05;;;;;;;21.27;43.96;101089.31;7399321;19;20375;-68
2022/06/18 06:29:34;;;;;;;2.45;1.25;;;;;;;21.38;42.99;101079.78;7402359;19;20018;-69
2022/06/18 06:32:02;;;;;;;2.90;1.13;;;;;;;21.53;42.57;101076.16;7400991;19;20010;-69
2022/06/18 06:34:31;;;;;;;9.15;4.32;;;;;;;21.67;42.14;101079.81;7400157;19;20077;-69
2022/06/18 06:36:59;;;;;;;6.22;1.77;;;;;;;21.82;42.20;101081.50;7401890;19;20033;-69
2022/06/18 06:39:28;;;;;;;1.98;1.20;;;;;;;21.93;42.07;101068.31;7398158;19;20078;-69
2022/06/18 06:41:59;;;;;;;3.03;1.08;;;;;;;22.05;41.47;101064.00;7398218;19;20037;-69
2022/06/18 06:44:28;;;;;;;1.88;1.00;;;;;;;22.18;41.43;101066.72;7398556;19;20027;-67
2022/06/18 06:46:58;;;;;;;5.50;1.42;;;;;;;22.27;41.03;101062.59;7397644;19;20023;-67
2022/06/18 06:49:26;;;;;;;1.50;1.27;;;;;;;22.38;40.91;101059.22;7399637;19;20481;-68
2022/06/18 06:51:55;;;;;;;2.28;1.20;;;;;;;22.48;40.63;101062.13;7397859;19;20029;-68
2022/06/18 06:54:23;;;;;;;4.18;1.50;;;;;;;22.58;40.44;101063.22;7400582;19;20018;-67
2022/06/18 06:59:35;;;;;;;1.75;1.00;;;;;;;22.79;39.93;101063.59;7399988;19;20006;-68
2022/06/18 07:02:04;;;;;;;2.78;1.10;;;;;;;22.88;40.04;101065.63;7397157;19;20489;-68
2022/06/18 07:04:33;;;;;;;2.42;0.88;;;;;;;22.97;40.03;101061.47;7400027;19;20018;-68
2022/06/18 07:07:01;;;;;;;2.65;1.13;;;;;;;23.08;39.41;101058.91;7399864;19;20035;-68
2022/06/18 07:09:30;;;;;;;1.33;1.10;;;;;;;23.19;39.27;101050.16;7396824;19;20027;-68
2022/06/18 07:11:58;;;;;;;1.55;1.42;;;;;;;23.30;39.12;101048.53;7397335;19;20022;-69
2022/06/18 07:14:27;;;;;;;2.75;1.30;;;;;;;23.38;39.44;101043.47;7395156;19;20014;-69
2022/06/18 07:16:58;;;;;;;3.15;1.10;;;;;;;23.47;38.89;101040.16;7395871;19;20022;-68
2022/06/18 07:19:27;;;;;;;2.47;1.00;;;;;;;23.55;39.16;101035.09;7398557;19;20011;-68
2022/06/18 07:21:55;;;;;;;1.20;1.10;;;;;;;23.64;38.64;101035.41;7395663;19;20025;-68
2022/06/18 07:24:24;;;;;;;2.42;1.75;;;;;;;23.74;38.84;101033.78;7395556;19;20520;-68
2022/06/18 07:26:52;;;;;;;4.40;1.40;;;;;;;23.83;38.28;101032.25;7399746;19;20023;-69
2022/06/18 07:29:21;;;;;;;1.55;1.13;;;;;;;23.91;38.35;101033.44;7396753;19;20022;-69
2022/06/18 07:31:50;;;;;;;2.08;1.40;;;;;;;24.00;38.26;101033.72;7396412;19;20347;-69
2022/06/18 07:34:21;;;;;;;2.45;1.92;;;;;;;24.08;37.71;101037.53;7396477;19;20018;-68
2022/06/18 07:36:50;;;;;;;1.83;0.95;;;;;;;24.17;37.85;101027.94;7398350;19;20032;-68
2022/06/18 07:39:18;;;;;;;3.63;1.70;;;;;;;24.29;37.61;101028.00;7398435;19;20360;-68
2022/06/18 07:41:52;;;;;;;2.13;1.45;;;;;;;24.37;37.40;101028.28;7398357;19;20559;-68
2022/06/18 07:44:22;;;;;;;3.47;2.00;;;;;;;24.48;37.55;101012.25;7396008;19;20457;-68
2022/06/18 07:46:51;;;;;;;1.75;1.52;;;;;;;24.58;37.55;101012.38;7398871;19;20431;-67
2022/06/18 07:49:22;;;;;;;4.40;1.73;;;;;;;24.68;37.01;101010.75;7398861;19;20018;-69
2022/06/18 07:51:50;;;;;;;2.95;1.75;;;;;;;24.78;37.18;101010.00;7397760;19;20022;-68
2022/06/18 07:54:21;;;;;;;4.82;1.95;;;;;;;24.88;37.16;101002.94;7397628;19;20513;-69
2022/06/18 07:56:50;;;;;;;3.13;1.92;;;;;;;24.98;36.50;101003.94;7395242;19;20434;-67
2022/06/18 07:59:18;;;;;;;4.47;1.90;;;;;;;25.09;36.69;101004.94;7395321;19;20035;-67
2022/06/18 08:01:47;;;;;;;1.88;1.30;;;;;;;25.19;36.81;100993.31;7397472;19;20021;-68
2022/06/18 08:04:15;;;;;;;5.10;2.00;;;;;;;25.29;36.38;100992.59;7396095;19;20022;-68
2022/06/18 08:06:46;;;;;;;4.65;1.55;;;;;;;25.38;36.16;100991.88;7397351;19;20022;-68
2022/06/18 08:09:15;;;;;;;5.75;2.00;;;;;;;25.47;36.46;100988.44;7397546;19;20021;-69
2022/06/18 08:11:44;;;;;;;3.22;1.52;;;;;;;25.59;36.27;100988.44;7397491;19;20027;-68
2022/06/18 08:14:14;;;;;;;4.05;1.60;;;;;;;25.69;35.84;100986.69;7395272;19;20026;-68
2022/06/18 08:16:44;;;;;;;2.85;1.60;;;;;;;25.78;35.78;100982.38;7395380;19;20031;-68
2022/06/18 08:19:12;;;;;;;3.22;1.55;;;;;;;25.86;35.86;100974.56;7397091;19;20042;-68
2022/06/18 08:21:44;;;;;;;2.95;1.67;;;;;;;25.94;35.53;100972.06;7395425;19;20039;-69
2022/06/18 08:24:19;;;;;;;2.63;1.80;;;;;;;26.04;35.41;100969.47;7394306;19;20022;-68
2022/06/18 08:26:50;;;;;;;3.78;1.83;;;;;;;26.13;35.55;100967.88;7395947;19;20028;-68
2022/06/18 08:29:22;;;;;;;3.28;2.00;;;;;;;26.22;35.38;100971.63;7395046;19;20031;-68
2022/06/18 08:31:50;;;;;;;4.47;1.90;;;;;;;26.32;35.21;100967.16;7396962;19;20034;-68
2022/06/18 08:34:19;;;;;;;2.45;1.73;;;;;;;26.43;35.24;100966.25;7394508;19;20011;-68
2022/06/18 08:36:48;;;;;;;4.07;2.00;;;;;;;26.53;34.95;100963.63;7394428;19;20014;-68
2022/06/18 08:39:19;;;;;;;3.45;2.25;;;;;;;26.62;34.74;100955.59;7394111;19;20035;-68
2022/06/18 08:42:14;;;;;;;2.13;1.92;;;;;;;26.73;34.54;100960.09;7395394;19;20475;-68
2022/06/18 08:44:54;;;;;;;3.50;2.08;;;;;;;26.83;34.43;100949.38;7395827;19;20031;-72
2022/06/18 08:47:41;;;;;;;4.50;2.30;;;;;;;26.92;34.48;100940.50;7396347;19;20089;-71
2022/06/18 08:50:27;;;;;;;7.35;1.95;;;;;;;27.03;34.22;100939.53;7396257;19;20070;-70
2022/06/18 08:53:18;;;;;;;3.92;2.47;;;;;;;27.17;34.15;100941.03;7396068;19;20358;-69
2022/06/18 08:55:58;;;;;;;5.43;2.80;;;;;;;27.28;34.00;100937.34;7395344;19;20042;-69
2022/06/18 08:58:37;;;;;;;3.35;2.20;;;;;;;27.34;33.58;100936.81;7395413;19;20018;-68
2022/06/18 09:01:11;;;;;;;3.85;2.30;;;;;;;27.41;33.69;100926.34;7393308;19;20373;-69
2022/06/18 09:03:55;;;;;;;3.65;2.13;;;;;;;27.48;33.59;100928.34;7393771;19;20333;-65
2022/06/18 09:06:38;;;;;;;2.75;2.00;;;;;;;27.59;32.94;100934.63;7393668;19;20074;-67
2022/06/18 09:09:15;;;;;;;3.03;2.13;;;;;;;27.65;32.58;100923.25;7393496;19;20030;-67
2022/06/18 09:11:59;;;;;;;4.40;2.80;;;;;;;27.76;32.41;100928.50;7395433;19;20014;-69
2022/06/18 09:14:34;;;;;;;3.10;2.22;;;;;;;27.84;32.48;100937.72;7393231;19;20363;-68
2022/06/18 09:17:13;;;;;;;4.18;2.45;;;;;;;27.91;32.09;100930.78;7394799;19;20015;-68
2022/06/18 09:19:45;;;;;;;3.63;2.80;;;;;;;27.98;32.31;100917.59;7392596;19;20324;-68
2022/06/18 09:22:19;;;;;;;3.33;2.90;;;;;;;28.03;31.91;100920.69;7395083;19;20078;-69
2022/06/18 09:24:50;;;;;;;3.10;2.70;;;;;;;28.10;31.80;100916.47;7392082;19;20011;-67
2022/06/18 09:27:25;;;;;;;5.68;2.95;;;;;;;28.18;31.72;100918.44;7392759;19;20034;-69
2022/06/18 09:30:02;;;;;;;5.60;2.63;;;;;;;28.24;31.52;100920.56;7393776;19;20022;-73
2022/06/18 09:32:36;;;;;;;5.47;2.72;;;;;;;28.35;31.33;100923.09;7392597;19;20018;-67
2022/06/18 09:35:12;;;;;;;5.10;2.20;;;;;;;28.42;31.41;100917.97;7394706;19;20040;-70
2022/06/18 09:37:48;;;;;;;2.35;2.00;;;;;;;28.50;31.27;100901.03;7401680;19;20035;-70
2022/06/18 09:40:24;;;;;;;5.40;1.88;;;;;;;28.55;31.43;100904.16;7399960;19;20521;-69
2022/06/18 09:43:03;;;;;;;6.43;2.42;;;;;;;28.62;31.40;100899.88;7401019;19;20372;-71
2022/06/18 09:45:35;;;;;;;3.22;2.80;;;;;;;28.68;31.23;100896.59;7402089;19;20070;-70
2022/06/18 09:48:04;;;;;;;3.47;3.17;;;;;;;28.77;31.24;100898.41;7401492;19;20481;-69
2022/06/18 09:50:40;;;;;;;5.70;3.70;;;;;;;28.86;31.25;100890.44;7399919;19;20015;-69
2022/06/18 09:53:16;;;;;;;6.10;3.40;;;;;;;28.93;31.16;100891.53;7401740;19;20027;-69
2022/06/18 09:55:49;;;;;;;5.10;3.20;;;;;;;28.99;30.83;100890.94;7402110;19;20033;-69
2022/06/18 09:58:22;;;;;;;;;;;;;;;29.03;31.00;100872.56;7402817;19;20035;-68
2022/06/18 10:00:52;;;;;;;;;;;;;;;29.08;31.04;100871.13;7400078;19;19985;-68
2022/06/18 10:08:47;;;;;;;9.00;3.78;;;;;;;29.32;31.25;100882.38;7401117;19;20006;-68
2022/06/18 10:11:17;;;;;;;7.78;3.88;;;;;;;29.37;30.82;100883.63;7398094;19;20022;-68
2022/06/18 10:14:03;;;;;;;6.10;2.45;;;;;;;29.46;30.81;100905.31;7400476;19;20014;-69
2022/06/18 10:16:42;;;;;;;8.57;3.38;;;;;;;29.49;30.58;100886.94;7400564;19;20633;-69
2022/06/18 10:19:21;;;;;;;5.95;3.17;;;;;;;29.55;30.89;100886.31;7400419;19;20427;-69
2022/06/18 10:21:59;;;;;;;4.63;2.75;;;;;;;29.62;30.59;100867.63;7400351;19;20073;-69
2022/06/18 10:24:39;;;;;;;5.25;2.30;;;;;;;29.74;30.66;100882.59;7398608;19;20015;-69
2022/06/18 10:27:16;;;;;;;3.85;1.80;;;;;;;29.85;30.38;100877.94;7397482;19;20018;-69
2022/06/18 10:29:54;;;;;;;3.40;2.03;;;;;;;29.94;30.19;100871.66;7399713;19;20081;-71
2022/06/18 10:32:37;;;;;;;3.03;1.95;;;;;;;30.00;29.72;100881.84;7400500;19;20031;-73
2022/06/18 10:35:21;;;;;;;4.43;2.57;;;;;;;30.06;29.94;100873.09;7399704;19;20374;-70
2022/06/18 10:38:13;;;;;;;5.45;2.65;;;;;;;30.11;29.81;100858.25;7400237;19;20038;-70
2022/06/18 10:40:52;;;;;;;4.22;2.33;;;;;;;30.18;29.77;100892.63;7398816;19;20039;-69
2022/06/18 10:43:34;;;;;;;7.78;3.35;;;;;;;30.23;28.53;100879.47;7400107;19;20028;-70
2022/06/18 10:46:10;;;;;;;8.65;3.00;;;;;;;30.31;28.62;100869.69;7398116;19;20033;-69
2022/06/18 10:48:39;;;;;;;5.43;1.83;;;;;;;30.37;28.97;100869.91;7398305;19;20065;-68
2022/06/18 10:51:18;;;;;;;5.18;1.90;;;;;;;30.43;28.25;100867.56;7397019;19;20014;-68
2022/06/18 10:53:54;;;;;;;3.85;2.08;;;;;;;30.50;28.69;100849.69;7400296;19;20035;-68
2022/06/18 10:56:25;;;;;;;4.95;2.35;;;;;;;30.58;28.59;100849.72;7397813;19;20019;-68
2022/06/18 10:58:56;;;;;;;3.22;2.17;;;;;;;30.65;28.24;100844.53;7397541;19;20015;-68
2022/06/18 11:01:34;;;;;;;6.35;2.53;;;;;;;30.73;28.36;100844.53;7397123;19;20031;-69
2022/06/18 11:04:05;;;;;;;2.95;2.20;;;;;;;30.85;28.26;100847.81;7398904;19;20350;-69
2022/06/18 11:06:34;;;;;;;4.15;2.00;;;;;;;30.94;28.18;100833.28;7397387;19;20092;-69
2022/06/18 11:09:05;;;;;;;6.28;2.42;;;;;;;31.03;28.17;100824.16;7396368;19;20458;-69
2022/06/18 11:11:38;;;;;;;8.07;2.20;;;;;;;31.12;27.74;100840.47;7396473;19;20042;-68
2022/06/18 11:14:15;;;;;;;7.22;2.17;;;;;;;31.21;28.00;100833.22;7397869;19;20019;-68
2022/06/18 11:16:49;;;;;;;6.28;2.20;;;;;;;31.28;27.67;100842.34;7399258;19;20029;-68
2022/06/18 11:19:19;;;;;;;2.30;1.52;;;;;;;31.31;27.48;100848.28;7399062;19;20036;-69
2022/06/18 11:21:48;;;;;;;5.35;1.70;;;;;;;31.38;27.47;100844.91;7396943;19;20014;-68
2022/06/18 11:24:31;;;;;;;4.18;1.90;;;;;;;31.47;27.13;100835.78;7397616;19;20039;-69
2022/06/18 11:27:02;;;;;;;4.20;2.58;;;;;;;31.56;26.91;100810.34;7394966;19;20011;-68
2022/06/18 11:29:40;;;;;;;3.75;2.15;;;;;;;31.69;26.80;100831.56;7397239;19;20489;-72
2022/06/18 11:32:14;;;;;;;2.97;1.92;;;;;;;31.87;26.68;100828.66;7398579;19;20045;-68
2022/06/18 11:34:47;;;;;;;4.65;1.90;;;;;;;32.00;26.57;100823.56;7395780;19;20032;-68
2022/06/18 11:37:24;;;;;;;7.65;2.13;;;;;;;32.20;25.61;100812.38;7395403;19;20018;-68
2022/06/18 11:39:57;;;;;;;5.78;1.92;;;;;;;32.38;25.58;100816.69;7394263;19;20019;-67
2022/06/18 11:42:31;;;;;;;4.75;1.83;;;;;;;32.56;25.84;100811.03;7396983;19;20451;-68
2022/06/18 11:45:22;;;;;;;6.13;2.03;;;;;;;32.76;25.40;100812.31;7395485;19;20100;-68
2022/06/18 11:48:01;;;;;;;3.80;2.20;;;;;;;32.94;24.65;100808.50;7397521;19;20069;-67
2022/06/18 11:50:37;;;;;;;4.80;2.45;;;;;;;33.10;24.20;100800.22;7396051;19;20025;-67
2022/06/18 11:53:16;;;;;;;5.97;2.47;;;;;;;33.27;24.19;100803.66;7397789;19;20015;-67
2022/06/18 11:55:49;;;;;;;6.03;1.95;;;;;;;33.40;23.77;100804.97;7398330;19;20046;-67
2022/06/18 11:58:23;;;;;;;6.32;2.10;;;;;;;33.47;22.92;100811.38;7398404;19;20026;-67
2022/06/18 12:00:59;;;;;;;6.30;2.50;;;;;;;33.57;23.17;100808.41;7395968;19;20023;-68
2022/06/18 12:03:38;;;;;;;11.38;2.70;;;;;;;33.66;22.75;100807.28;7396142;19;20035;-67